Airfield :







YOU CAN JOIN US ON...

 
LOGIN :

Register | Disclaimer

   EN    FR    IT 

 









Legend :    VFR   Marginal VFR   IFR   Intensive IFR   Very Intensive IFR
Visi :
Ceiling :
>= 8 km
>= 3000ft
5 to 8 km
1000 to 3000 ft
1500m to 5 km
500 to 1000 ft
800 to 1500m
200 to 500 ft
< 800m
< 200 ft
Symbols :   Thunderstorms  Fog  Heavy snow  Heavy precipitations  Wind > 20 kt







- Airport Elevation : 477 ft
- IATA code : YHZ


CYHZ - Halifax Stanfield Int.

CURRENT METAR :
  • 201900Z 28008KT 15SM BKN045 BKN250 32/21 A2964 RMK CU7CS1 CS TR SLP038 DENSITY ALT 2800FT

EXPIRED METARs :
  • 201800Z 32008KT 270V360 15SM SCT042TCU BKN250 31/21 A2965 RMK TCU4CI2 SLP039 DENSITY ALT 2800FT
  • 201700Z 30008KT 250V340 15SM SCT045 BKN250 31/21 A2965 RMK CU3CI3 TCU ASOCTD SLP039 DENSITY ALT 2700FT

TAF TAF CYHZ
Valid from the 20 at 18:00 until the 21 at 18:00 UTC


201738Z 2018/2118 30008KT P6SM FEW050 FEW130
BECMG 2023/2101 19005KT
BECMG 2105/2107 24008KT
FM211500 01005KT P6SM BKN050 RMK NXT FCST BY 202100Z
CZQM FIR / North America



MET'MAP, your aeronautical weather chart ! - Copyright ORBIFLY December 2007 - Disclaimer

ORBIFLY MET'MAP TEAM :

Programming & Development : Alexandra Zaïnal
Concept & Development : Baudouin d'Aumeries
Co-Development & Prog : Marc-Olivier Méhu
Technical & hardware support : Manuel Goepfert

Contact : metmap@orbifly.com




SOURCES & CREDITS :

   NOAA